createdAt,value
2022-10-22T00:02:44.548Z,75.63
2022-10-22T00:05:50.372Z,75.59
2022-10-22T00:08:55.904Z,75.52
2022-10-22T00:12:01.658Z,75.60
2022-10-22T00:15:08.914Z,75.64
2022-10-22T00:18:14.394Z,75.70
2022-10-22T00:21:19.837Z,75.71
2022-10-22T00:24:25.521Z,75.70
2022-10-22T00:27:31.147Z,75.84
2022-10-22T00:30:36.695Z,75.99
2022-10-22T00:33:42.601Z,75.91
2022-10-22T00:36:48.715Z,76.00
2022-10-22T00:39:54.264Z,75.91
2022-10-22T00:43:00.224Z,75.86
2022-10-22T00:46:06.284Z,75.91
2022-10-22T00:49:11.733Z,75.89
2022-10-22T00:52:17.486Z,75.88
2022-10-22T00:55:24.245Z,76.14
2022-10-22T00:58:34.441Z,76.11
2022-10-22T01:01:39.890Z,76.24
2022-10-22T01:04:45.877Z,76.12
2022-10-22T01:07:53.834Z,76.29
2022-10-22T01:11:13.720Z,76.29
2022-10-22T01:14:25.414Z,76.27
2022-10-22T01:17:38.829Z,76.50
2022-10-22T01:21:04.058Z,76.50
2022-10-22T01:24:54.560Z,76.54
2022-10-22T01:28:10.783Z,76.54
2022-10-22T01:31:17.993Z,76.62
2022-10-22T01:34:26.978Z,76.71
2022-10-22T01:37:35.659Z,76.79
2022-10-22T01:40:42.818Z,76.77
2022-10-22T01:43:48.296Z,76.67
2022-10-22T01:47:00.032Z,76.77
2022-10-22T01:50:20.777Z,76.59
2022-10-22T01:53:33.924Z,76.72
2022-10-22T01:56:55.766Z,76.72
2022-10-22T02:00:06.725Z,76.75
2022-10-22T02:03:19.899Z,76.81
2022-10-22T02:06:28.464Z,76.97
2022-10-22T02:09:35.027Z,76.90
2022-10-22T02:12:43.098Z,76.90
2022-10-22T02:15:51.054Z,76.96
2022-10-22T02:18:59.350Z,76.94
2022-10-22T02:22:05.090Z,77.09
2022-10-22T02:25:11.746Z,77.05
2022-10-22T02:28:24.825Z,77.03
2022-10-22T02:31:33.437Z,77.03
2022-10-22T02:34:39.050Z,77.24
2022-10-22T02:37:45.486Z,77.24
2022-10-22T02:40:51.092Z,76.99
2022-10-22T02:43:57.949Z,77.06
2022-10-22T02:47:03.499Z,77.28
2022-10-22T02:50:10.649Z,77.19
2022-10-22T02:53:16.094Z,76.92
2022-10-22T02:56:21.683Z,76.88
2022-10-22T02:59:27.237Z,77.18
2022-10-22T03:02:32.802Z,77.30
2022-10-22T03:05:38.437Z,77.24
2022-10-22T03:08:44.003Z,77.28
2022-10-22T03:11:49.635Z,77.20
2022-10-22T03:14:55.041Z,77.22
2022-10-22T03:18:00.633Z,77.18
2022-10-22T03:21:11.813Z,76.99
2022-10-22T03:24:22.713Z,77.05
2022-10-22T03:27:30.362Z,77.20
2022-10-22T03:30:35.938Z,77.17
2022-10-22T03:33:41.355Z,77.36
2022-10-22T03:36:47.547Z,77.32
2022-10-22T03:39:54.019Z,77.22
2022-10-22T03:42:59.670Z,77.31
2022-10-22T03:46:05.218Z,77.25
2022-10-22T03:49:10.922Z,77.34
2022-10-22T03:52:17.238Z,77.31
2022-10-22T03:55:21.354Z,77.27
2022-10-22T03:58:27.006Z,77.35
2022-10-22T04:01:33.351Z,77.10
2022-10-22T04:04:38.027Z,77.30
2022-10-22T04:07:43.623Z,77.42
2022-10-22T04:10:54.737Z,77.33
2022-10-22T04:14:00.235Z,77.07
2022-10-22T04:17:05.731Z,77.17
2022-10-22T04:20:13.122Z,77.22
2022-10-22T04:23:18.509Z,77.06
2022-10-22T04:26:24.444Z,77.19
2022-10-22T04:29:29.873Z,77.27
2022-10-22T04:32:35.323Z,77.24
2022-10-22T04:35:42.414Z,77.16
2022-10-22T04:38:52.902Z,77.22
2022-10-22T04:41:58.419Z,77.22
2022-10-22T04:45:03.970Z,77.03
2022-10-22T04:48:10.030Z,77.04
2022-10-22T04:51:17.577Z,77.15
2022-10-22T04:54:23.381Z,77.20
2022-10-22T04:57:32.076Z,77.52
2022-10-22T05:00:37.526Z,77.58
2022-10-22T05:03:43.306Z,77.59
2022-10-22T05:06:48.855Z,77.59
2022-10-22T05:09:54.611Z,77.55
2022-10-22T05:13:00.017Z,77.48
2022-10-22T05:16:06.430Z,77.43
2022-10-22T05:19:18.407Z,77.47
2022-10-22T05:22:23.790Z,77.58
2022-10-22T05:25:29.320Z,77.60
2022-10-22T05:28:35.484Z,77.71
2022-10-22T05:31:41.238Z,77.75
2022-10-22T05:34:46.688Z,77.72
2022-10-22T05:37:52.160Z,77.80
2022-10-22T05:41:03.967Z,78.03
2022-10-22T05:44:12.522Z,77.92
2022-10-22T05:47:17.998Z,77.73
2022-10-22T05:50:23.444Z,77.68
2022-10-22T05:53:28.891Z,77.64
2022-10-22T05:56:35.015Z,77.71
2022-10-22T05:59:40.808Z,77.91
2022-10-22T06:02:50.281Z,78.11
2022-10-22T06:05:56.986Z,78.16
2022-10-22T06:09:06.503Z,78.12
2022-10-22T06:12:13.911Z,78.30
2022-10-22T06:15:21.361Z,78.18
2022-10-22T06:18:26.804Z,78.23
2022-10-22T06:21:33.600Z,78.33
2022-10-22T06:24:41.599Z,78.26
2022-10-22T06:27:53.179Z,78.26
2022-10-22T06:31:00.193Z,78.33
2022-10-22T06:34:06.304Z,78.30
2022-10-22T06:37:13.941Z,78.32
2022-10-22T06:40:19.667Z,78.33
2022-10-22T06:43:25.124Z,78.50
2022-10-22T06:46:31.956Z,78.59
2022-10-22T06:49:37.585Z,78.69
2022-10-22T06:52:43.138Z,78.66
2022-10-22T06:55:48.755Z,78.71
2022-10-22T06:58:55.451Z,78.82
2022-10-22T07:02:00.981Z,79.07
2022-10-22T07:05:07.379Z,79.30
2022-10-22T07:08:11.363Z,79.24
2022-10-22T07:11:19.164Z,79.42
2022-10-22T07:14:24.580Z,79.42
2022-10-22T07:17:30.218Z,79.54
2022-10-22T07:20:35.813Z,79.59
2022-10-22T07:23:41.873Z,79.77
2022-10-22T07:26:47.424Z,79.68
2022-10-22T07:29:53.180Z,79.71
2022-10-22T07:32:58.636Z,79.67
2022-10-22T07:36:07.150Z,79.78
2022-10-22T07:39:12.592Z,79.88
2022-10-22T07:42:18.218Z,80.01
2022-10-22T07:45:23.677Z,80.05
2022-10-22T07:48:29.417Z,80.32
2022-10-22T07:51:34.993Z,80.29
2022-10-22T07:54:40.543Z,80.12
2022-10-22T07:57:46.092Z,80.07
2022-10-22T08:00:52.401Z,79.93
2022-10-22T08:03:57.908Z,79.77
2022-10-22T08:07:03.478Z,79.73
2022-10-22T08:10:11.797Z,79.62
2022-10-22T08:13:17.832Z,79.73
2022-10-22T08:16:23.381Z,79.62
2022-10-22T08:19:29.957Z,79.75
2022-10-22T08:22:35.504Z,79.72
2022-10-22T08:25:40.958Z,79.60
2022-10-22T08:28:46.418Z,79.34
2022-10-22T08:31:53.853Z,79.25
2022-10-22T08:34:59.307Z,79.29
2022-10-22T08:38:05.228Z,79.30
2022-10-22T08:41:15.458Z,79.14
2022-10-22T08:44:44.761Z,78.97
2022-10-22T08:48:08.845Z,79.09
2022-10-22T08:51:18.901Z,79.28
2022-10-22T08:54:33.221Z,78.84
2022-10-22T08:57:52.437Z,78.56
2022-10-22T09:01:04.327Z,78.63
2022-10-22T09:04:19.753Z,78.60
2022-10-22T09:07:25.358Z,78.56
2022-10-22T09:10:36.743Z,78.43
2022-10-22T09:13:44.236Z,78.40
2022-10-22T09:17:10.880Z,78.38
2022-10-22T09:20:26.929Z,78.38
2022-10-22T09:23:39.629Z,78.21
2022-10-22T09:26:45.243Z,78.02
2022-10-22T09:29:51.103Z,77.84
2022-10-22T09:33:01.565Z,77.78
2022-10-22T09:36:08.809Z,77.65
2022-10-22T09:39:28.332Z,77.69
2022-10-22T09:42:35.055Z,77.54
2022-10-22T09:45:40.558Z,77.51
2022-10-22T09:48:52.876Z,77.36
2022-10-22T09:52:00.189Z,77.34
2022-10-22T09:55:17.329Z,77.36
2022-10-22T09:58:23.381Z,77.21
2022-10-22T10:01:28.394Z,77.07
2022-10-22T10:04:41.752Z,76.87
2022-10-22T10:07:48.586Z,76.87
2022-10-22T10:10:57.822Z,77.02
2022-10-22T10:14:14.330Z,76.66
2022-10-22T10:17:29.399Z,76.47
2022-10-22T10:20:42.632Z,76.53
2022-10-22T10:23:55.394Z,76.46
2022-10-22T10:27:08.525Z,76.20
2022-10-22T10:30:17.418Z,76.17
2022-10-22T10:33:33.158Z,76.26
2022-10-22T10:36:46.421Z,76.36
2022-10-22T10:40:25.762Z,76.23
2022-10-22T10:43:39.748Z,76.08
2022-10-22T10:46:56.333Z,75.99
2022-10-22T10:50:15.281Z,75.69
2022-10-22T10:53:35.732Z,75.62
2022-10-22T10:56:45.886Z,75.76
2022-10-22T11:00:07.258Z,75.60
2022-10-22T11:03:52.751Z,75.80
2022-10-22T11:07:11.554Z,75.83
2022-10-22T11:10:29.861Z,75.54
2022-10-22T11:13:39.701Z,75.47
2022-10-22T11:16:50.805Z,75.28
2022-10-22T11:20:02.370Z,75.24
2022-10-22T11:23:19.588Z,75.29
2022-10-22T11:26:37.023Z,75.31
2022-10-22T11:29:48.714Z,75.21
2022-10-22T11:32:57.222Z,75.23
2022-10-22T11:36:06.488Z,75.18
2022-10-22T11:39:33.044Z,75.35
2022-10-22T11:42:43.416Z,75.30
2022-10-22T11:45:58.241Z,75.35
2022-10-22T11:49:20.632Z,75.36
2022-10-22T11:52:39.172Z,75.41
2022-10-22T11:55:49.043Z,75.44
2022-10-22T12:02:38.624Z,75.36
2022-10-22T12:05:44.548Z,75.52
2022-10-22T12:08:58.098Z,75.68
2022-10-22T12:12:15.068Z,75.79
2022-10-22T12:15:27.686Z,75.70
2022-10-22T12:18:42.483Z,75.94
2022-10-22T12:21:53.812Z,75.90
2022-10-22T12:25:03.721Z,75.96
2022-10-22T12:28:16.149Z,75.98
2022-10-22T12:31:21.679Z,76.13
2022-10-22T12:34:29.498Z,76.17
2022-10-22T12:37:38.040Z,76.24
2022-10-22T12:40:47.656Z,76.40
2022-10-22T12:44:02.004Z,76.37
2022-10-22T12:47:09.542Z,76.44
2022-10-22T12:50:20.500Z,76.59
2022-10-22T12:53:30.077Z,76.76
2022-10-22T12:56:37.715Z,76.84
2022-10-22T12:59:48.897Z,76.75
2022-10-22T13:02:58.645Z,76.83
2022-10-22T13:06:26.211Z,76.80
2022-10-22T13:09:41.726Z,76.98
2022-10-22T13:12:52.444Z,77.19
2022-10-22T13:15:57.883Z,77.34
2022-10-22T13:19:03.343Z,77.34
2022-10-22T13:22:30.850Z,77.34
2022-10-22T13:25:38.669Z,77.51
2022-10-22T13:28:50.725Z,77.75
2022-10-22T13:31:56.687Z,77.91
2022-10-22T13:35:04.045Z,77.88
2022-10-22T13:38:18.377Z,78.09
2022-10-22T13:41:25.595Z,78.19
2022-10-22T13:44:31.069Z,78.22
2022-10-22T13:47:36.701Z,78.33
2022-10-22T13:50:42.317Z,78.43
2022-10-22T13:53:50.223Z,78.43
2022-10-22T13:56:55.866Z,78.63
2022-10-22T14:00:01.823Z,78.67
2022-10-22T14:03:11.453Z,78.74
2022-10-22T14:06:19.125Z,78.85
2022-10-22T14:09:24.577Z,78.83
2022-10-22T14:12:30.126Z,78.97
2022-10-22T14:15:35.882Z,79.16
2022-10-22T14:18:42.252Z,79.16
2022-10-22T14:21:49.289Z,79.09
2022-10-22T14:24:55.312Z,79.15
2022-10-22T14:28:00.844Z,79.31
2022-10-22T14:31:06.698Z,79.47
2022-10-22T14:34:13.811Z,79.41
2022-10-22T14:37:21.472Z,79.52
2022-10-22T14:40:27.033Z,79.76
2022-10-22T14:43:33.401Z,79.66
2022-10-22T14:46:40.181Z,80.06
2022-10-22T14:49:45.729Z,80.10
2022-10-22T14:52:51.380Z,80.13
2022-10-22T14:55:59.694Z,80.01
2022-10-22T14:59:05.149Z,80.14
2022-10-22T15:02:12.972Z,80.10
2022-10-22T15:05:19.257Z,80.07
2022-10-22T15:08:25.525Z,80.25
2022-10-22T15:11:30.985Z,80.34
2022-10-22T15:14:36.432Z,80.50
2022-10-22T15:17:42.222Z,80.56
2022-10-22T15:20:46.508Z,80.53
2022-10-22T15:23:52.199Z,80.67
2022-10-22T15:26:57.885Z,80.72
2022-10-22T15:33:13.763Z,80.78
2022-10-22T15:36:19.516Z,80.88
2022-10-22T15:39:25.782Z,81.11
2022-10-22T15:42:29.795Z,81.07
2022-10-22T15:45:35.221Z,81.14
2022-10-22T15:48:41.349Z,81.40
2022-10-22T15:51:45.834Z,81.54
2022-10-22T15:54:51.277Z,81.56
2022-10-22T15:58:00.592Z,81.62
2022-10-22T16:01:11.259Z,81.74
2022-10-22T16:04:16.832Z,81.74
2022-10-22T16:07:23.989Z,81.91
2022-10-22T16:10:30.596Z,81.95
2022-10-22T16:13:37.314Z,81.95
2022-10-22T16:16:46.257Z,82.13
2022-10-22T16:19:52.056Z,82.20
2022-10-22T16:22:57.606Z,82.15
2022-10-22T16:26:05.407Z,82.30
2022-10-22T16:29:12.617Z,82.21
2022-10-22T16:32:18.248Z,82.27
2022-10-22T16:35:23.796Z,82.44
2022-10-22T16:38:29.755Z,82.55
2022-10-22T16:41:38.661Z,82.58
2022-10-22T16:44:44.643Z,82.62
2022-10-22T16:47:51.285Z,82.67
2022-10-22T16:50:56.970Z,82.67
2022-10-22T16:54:03.737Z,82.56
2022-10-22T16:57:12.471Z,82.63
2022-10-22T17:00:19.385Z,82.61
2022-10-22T17:03:27.543Z,82.71
2022-10-22T17:06:34.068Z,82.78
2022-10-22T17:09:39.687Z,82.69
2022-10-22T17:12:45.238Z,82.92
2022-10-22T17:15:50.668Z,83.00
2022-10-22T17:18:57.921Z,82.89
2022-10-22T17:22:03.357Z,83.07
2022-10-22T17:25:16.200Z,83.14
2022-10-22T17:28:21.688Z,83.21
2022-10-22T17:31:28.772Z,83.20
2022-10-22T17:34:34.322Z,83.27
2022-10-22T17:37:40.243Z,83.19
2022-10-22T17:40:46.137Z,83.30
2022-10-22T17:43:51.760Z,83.37
2022-10-22T17:46:57.339Z,83.47
2022-10-22T17:50:02.785Z,83.22
2022-10-22T17:53:08.542Z,83.33
2022-10-22T17:56:16.553Z,83.40
2022-10-22T17:59:22.096Z,83.49
2022-10-22T18:02:28.718Z,83.46
2022-10-22T18:05:36.491Z,83.52
2022-10-22T18:08:42.457Z,83.54
2022-10-22T18:11:48.661Z,83.56
2022-10-22T18:14:52.613Z,83.54
2022-10-22T18:17:58.207Z,83.71
2022-10-22T18:21:05.298Z,83.66
2022-10-22T18:24:12.020Z,83.62
2022-10-22T18:27:17.469Z,83.68
2022-10-22T18:30:23.018Z,83.65
2022-10-22T18:33:28.517Z,83.82
2022-10-22T18:36:34.015Z,83.72
2022-10-22T18:39:39.565Z,83.79
2022-10-22T18:42:45.314Z,84.00
2022-10-22T18:45:49.742Z,84.03
2022-10-22T18:48:58.516Z,84.03
2022-10-22T18:52:04.525Z,84.02
2022-10-22T18:55:10.899Z,84.11
2022-10-22T18:58:17.980Z,84.30
2022-10-22T19:01:25.723Z,84.29
2022-10-22T19:04:36.707Z,84.51
2022-10-22T19:07:42.606Z,84.38
2022-10-22T19:10:50.122Z,84.52
2022-10-22T19:13:55.762Z,84.45
2022-10-22T19:17:03.564Z,84.50
2022-10-22T19:20:11.251Z,84.53
2022-10-22T19:23:19.994Z,84.59
2022-10-22T19:26:27.793Z,84.75
2022-10-22T19:29:35.491Z,84.68
2022-10-22T19:32:41.361Z,84.65
2022-10-22T19:35:45.566Z,84.72
2022-10-22T19:38:51.422Z,84.77
2022-10-22T19:41:57.303Z,84.76
2022-10-22T19:45:02.834Z,84.85
2022-10-22T19:48:09.141Z,84.91
2022-10-22T19:51:20.512Z,85.07
2022-10-22T19:54:26.588Z,85.09
2022-10-22T19:57:32.091Z,85.01
2022-10-22T20:00:38.324Z,85.17
2022-10-22T20:03:44.319Z,85.15
2022-10-22T20:06:49.809Z,85.32
2022-10-22T20:09:55.262Z,85.40
2022-10-22T20:13:00.764Z,85.37
2022-10-22T20:16:07.070Z,85.53
2022-10-22T20:19:16.358Z,85.45
2022-10-22T20:22:22.018Z,85.50
2022-10-22T20:25:27.565Z,85.37
2022-10-22T20:28:33.322Z,85.60
2022-10-22T20:31:38.970Z,85.55
2022-10-22T20:34:44.418Z,85.62
2022-10-22T20:37:50.072Z,85.72
2022-10-22T20:41:03.585Z,85.61
2022-10-22T20:44:12.025Z,85.85
2022-10-22T20:47:17.677Z,85.94
2022-10-22T20:50:27.578Z,85.81
2022-10-22T20:53:33.059Z,85.67
2022-10-22T20:56:40.367Z,85.78
2022-10-22T20:59:46.433Z,85.90
2022-10-22T21:02:51.861Z,85.83
2022-10-22T21:05:57.423Z,86.14
2022-10-22T21:09:02.907Z,86.10
2022-10-22T21:12:09.036Z,86.13
2022-10-22T21:15:15.236Z,86.09
2022-10-22T21:18:19.212Z,86.24
2022-10-22T21:21:24.966Z,86.21
2022-10-22T21:24:30.515Z,86.27
2022-10-22T21:27:36.177Z,86.24
2022-10-22T21:30:47.183Z,86.34
2022-10-22T21:33:53.615Z,86.57
2022-10-22T21:36:59.164Z,86.65
2022-10-22T21:40:05.377Z,86.73
2022-10-22T21:43:10.062Z,86.54
2022-10-22T21:46:18.200Z,86.52
2022-10-22T21:49:23.953Z,86.56
2022-10-22T21:52:29.406Z,86.72
2022-10-22T21:55:37.933Z,86.60
2022-10-22T21:58:43.848Z,86.55
2022-10-22T22:01:49.396Z,86.56
2022-10-22T22:04:55.876Z,86.61
2022-10-22T22:08:01.466Z,86.76
2022-10-22T22:11:09.222Z,86.71
2022-10-22T22:14:15.113Z,86.66
2022-10-22T22:17:20.625Z,86.67
2022-10-22T22:20:26.174Z,86.78
2022-10-22T22:23:31.729Z,86.65
2022-10-22T22:26:37.376Z,86.65
2022-10-22T22:29:42.925Z,86.74
2022-10-22T22:32:48.334Z,86.78
2022-10-22T22:35:54.154Z,86.85
2022-10-22T22:38:59.751Z,86.82
2022-10-22T22:42:05.209Z,86.87
2022-10-22T22:45:11.705Z,86.76
2022-10-22T22:48:17.249Z,86.71
2022-10-22T22:51:23.104Z,86.92
2022-10-22T22:54:29.162Z,86.90
2022-10-22T22:57:35.874Z,86.77
2022-10-22T23:03:56.333Z,86.77
2022-10-22T23:07:01.909Z,86.94
2022-10-22T23:10:08.903Z,86.90
2022-10-22T23:13:14.317Z,87.04
2022-10-22T23:16:21.335Z,86.92
2022-10-22T23:19:26.796Z,86.99
2022-10-22T23:22:32.321Z,87.09
2022-10-22T23:25:37.794Z,86.96
2022-10-22T23:28:43.623Z,87.00
2022-10-22T23:31:50.425Z,87.04
2022-10-22T23:34:56.053Z,87.02
2022-10-22T23:38:01.498Z,87.02
2022-10-22T23:41:07.804Z,86.98
2022-10-22T23:44:14.243Z,86.98
2022-10-22T23:47:19.785Z,87.19
2022-10-22T23:50:25.643Z,87.09
2022-10-22T23:53:31.397Z,86.99
2022-10-22T23:56:37.112Z,87.17
2022-10-22T23:59:42.597Z,87.15
